Layland, West Virginia
Current Conditions -  °F | °C
As of 10:17 AM on Saturday 20 Dec 2014 (Local Time) from KBKW Reporting Station
Overcast Overcast  
Wind Chill: 30°   Ceiling: 2900
Heat Index: 30°   Visibility: 10mi
Dew Point: 24°   Wind: 0mph
Humidity: 79%   Direction: NA
Pressure: 30.18"   Gusts: NA
Location:  37.9°N, 80.99°W
Report Text: KBKW 201517Z AUTO 00000KT 10SM FEW015 OVC029 M01/M04 A3018 RMK AO2 SNB1455E04 P0000 T10111044
Loading
Personal Weather Stations






























Interactive Weather Map New forecast layout! Learn more

10-Day Weather Forecast

Advertisements
Track Severe Weather on mobile